createdAt,value
2022-09-09T00:05:05.562Z,17.40
2022-09-09T00:12:12.695Z,17.40
2022-09-09T00:19:43.037Z,17.40
2022-09-09T00:26:49.342Z,17.30
2022-09-09T00:33:50.721Z,17.20
2022-09-09T00:40:53.111Z,17.20
2022-09-09T00:47:54.741Z,17.20
2022-09-09T00:55:14.401Z,17.20
2022-09-09T01:02:26.125Z,17.30
2022-09-09T01:09:43.312Z,17.30
2022-09-09T01:16:45.846Z,17.20
2022-09-09T01:24:08.795Z,17.20
2022-09-09T01:31:37.407Z,17.20
2022-09-09T01:38:39.530Z,17.20
2022-09-09T01:45:43.617Z,17.10
2022-09-09T01:52:48.380Z,17.00
2022-09-09T02:00:10.023Z,17.00
2022-09-09T02:07:43.549Z,17.00
2022-09-09T02:15:12.104Z,17.10
2022-09-09T02:22:25.131Z,17.20
2022-09-09T02:29:43.691Z,17.30
2022-09-09T02:36:46.523Z,17.30
2022-09-09T02:43:47.113Z,17.30
2022-09-09T02:51:00.279Z,17.30
2022-09-09T02:58:07.983Z,17.30
2022-09-09T03:05:09.488Z,17.30
2022-09-09T03:12:11.999Z,17.20
2022-09-09T03:19:12.907Z,17.10
2022-09-09T03:26:15.635Z,17.10
2022-09-09T03:33:19.361Z,17.20
2022-09-09T03:40:21.029Z,17.20
2022-09-09T03:47:22.858Z,17.20
2022-09-09T03:54:26.455Z,17.10
2022-09-09T04:01:27.820Z,17.20
2022-09-09T04:08:28.419Z,17.20
2022-09-09T04:15:29.268Z,17.20
2022-09-09T04:22:29.598Z,17.10
2022-09-09T04:29:29.949Z,17.10
2022-09-09T04:36:30.426Z,17.10
2022-09-09T04:43:35.422Z,17.10
2022-09-09T04:50:37.801Z,17.10
2022-09-09T04:57:38.652Z,17.10
2022-09-09T05:04:39.022Z,17.20
2022-09-09T05:11:40.069Z,17.10
2022-09-09T05:18:46.958Z,17.10
2022-09-09T05:25:58.761Z,17.10
2022-09-09T05:33:00.288Z,17.20
2022-09-09T05:40:02.448Z,17.20
2022-09-09T05:47:03.098Z,17.10
2022-09-09T05:54:04.102Z,17.00
2022-09-09T06:01:12.921Z,17.00
2022-09-09T06:08:13.249Z,16.90
2022-09-09T06:15:13.648Z,16.90
2022-09-09T06:22:14.156Z,17.00
2022-09-09T06:29:15.645Z,17.00
2022-09-09T06:36:20.152Z,17.00
2022-09-09T06:43:20.541Z,17.00
2022-09-09T06:50:23.867Z,17.10
2022-09-09T06:57:36.977Z,17.20
2022-09-09T07:04:41.833Z,17.30
2022-09-09T07:11:48.058Z,17.60
2022-09-09T07:18:51.411Z,17.90
2022-09-09T07:25:53.757Z,18.30
2022-09-09T07:32:57.992Z,18.70
2022-09-09T07:39:59.554Z,18.90
2022-09-09T07:47:00.127Z,19.00
2022-09-09T07:54:11.650Z,19.10
2022-09-09T08:01:25.834Z,19.10
2022-09-09T08:08:26.356Z,19.20
2022-09-09T08:15:26.713Z,19.30
2022-09-09T08:22:27.423Z,19.30
2022-09-09T08:29:29.487Z,19.30
2022-09-09T08:36:34.293Z,19.30
2022-09-09T08:43:35.234Z,19.30
2022-09-09T08:50:39.475Z,19.40
2022-09-09T08:57:47.319Z,19.50
2022-09-09T09:05:05.570Z,19.70
2022-09-09T09:12:21.230Z,19.70
2022-09-09T09:19:27.102Z,19.70
2022-09-09T09:26:36.015Z,19.80
2022-09-09T09:33:42.295Z,19.90
2022-09-09T09:40:58.872Z,19.90
2022-09-09T09:48:07.462Z,19.90
2022-09-09T09:55:15.228Z,20.00
2022-09-09T10:02:27.526Z,19.90
2022-09-09T10:09:41.447Z,20.00
2022-09-09T10:16:53.260Z,20.10
2022-09-09T10:24:23.244Z,20.30
2022-09-09T10:32:12.642Z,20.60
2022-09-09T10:39:42.228Z,20.70
2022-09-09T10:47:16.875Z,20.80
2022-09-09T10:54:33.177Z,21.00
2022-09-09T11:01:38.852Z,21.10
2022-09-09T11:08:40.590Z,21.10
2022-09-09T11:15:45.546Z,21.10
2022-09-09T11:23:01.228Z,21.20
2022-09-09T11:30:08.227Z,21.40
2022-09-09T11:37:23.775Z,21.40
2022-09-09T11:44:32.183Z,21.20
2022-09-09T11:51:34.670Z,21.10
2022-09-09T11:58:41.545Z,21.10
2022-09-09T12:05:46.925Z,21.10
2022-09-09T12:12:47.265Z,21.10
2022-09-09T12:19:48.940Z,21.10
2022-09-09T12:26:57.851Z,21.00
2022-09-09T12:34:12.089Z,20.90
2022-09-09T12:41:27.669Z,20.90
2022-09-09T12:48:38.263Z,20.90
2022-09-09T12:55:40.100Z,21.10
2022-09-09T13:02:51.909Z,21.10
2022-09-09T13:09:52.218Z,20.70
2022-09-09T13:16:58.918Z,19.50
2022-09-09T13:24:04.040Z,19.20
2022-09-09T13:31:07.881Z,19.10
2022-09-09T13:38:12.787Z,19.00
2022-09-09T13:45:23.136Z,18.90
2022-09-09T13:52:24.202Z,19.10
2022-09-09T13:59:30.665Z,19.30
2022-09-09T14:06:44.404Z,19.40
2022-09-09T14:13:44.709Z,19.40
2022-09-09T14:20:45.781Z,19.40
2022-09-09T14:27:46.998Z,19.40
2022-09-09T14:34:49.003Z,18.90
2022-09-09T14:41:49.159Z,18.30
2022-09-09T14:48:49.912Z,17.90
2022-09-09T14:55:50.034Z,17.70
2022-09-09T15:02:53.766Z,17.60
2022-09-09T15:09:54.235Z,17.50
2022-09-09T15:16:54.359Z,17.70
2022-09-09T15:23:55.556Z,17.90
2022-09-09T15:30:57.777Z,18.10
2022-09-09T15:37:58.201Z,18.20
2022-09-09T15:44:58.887Z,18.30
2022-09-09T15:52:03.174Z,18.50
2022-09-09T15:59:03.998Z,18.60
2022-09-09T16:06:05.780Z,18.80
2022-09-09T16:13:05.826Z,19.00
2022-09-09T16:20:09.230Z,19.10
2022-09-09T16:27:10.048Z,19.00
2022-09-09T16:34:10.807Z,18.90
2022-09-09T16:41:12.433Z,18.90
2022-09-09T16:48:13.038Z,18.80
2022-09-09T16:55:13.556Z,18.70
2022-09-09T17:02:14.008Z,18.70
2022-09-09T17:09:14.263Z,18.70
2022-09-09T17:16:17.051Z,18.70
2022-09-09T17:23:17.604Z,18.70
2022-09-09T17:30:18.244Z,18.60
2022-09-09T17:37:18.968Z,18.50
2022-09-09T17:44:20.238Z,18.30
2022-09-09T17:51:28.669Z,18.10
2022-09-09T17:58:28.816Z,18.00
2022-09-09T18:05:30.253Z,18.00
2022-09-09T18:12:34.757Z,18.00
2022-09-09T18:19:35.586Z,18.00
2022-09-09T18:26:36.593Z,18.00
2022-09-09T18:33:40.929Z,18.00
2022-09-09T18:40:41.103Z,18.00
2022-09-09T18:47:43.366Z,17.90
2022-09-09T18:54:45.938Z,17.70
2022-09-09T19:01:48.200Z,17.60
2022-09-09T19:08:52.319Z,17.50
2022-09-09T19:15:55.751Z,17.40
2022-09-09T19:22:56.328Z,17.40
2022-09-09T19:29:57.197Z,17.30
2022-09-09T19:36:57.763Z,17.20
2022-09-09T19:44:01.664Z,17.20
2022-09-09T19:51:29.372Z,17.10
2022-09-09T19:58:34.092Z,17.10
2022-09-09T20:05:34.559Z,17.00
2022-09-09T20:12:35.226Z,17.00
2022-09-09T20:19:35.913Z,16.90
2022-09-09T20:26:37.397Z,16.90
2022-09-09T20:33:38.413Z,16.90
2022-09-09T20:40:39.844Z,16.90
2022-09-09T20:47:40.593Z,17.00
2022-09-09T20:54:41.829Z,17.00
2022-09-09T21:01:43.762Z,17.00
2022-09-09T21:08:45.744Z,17.00
2022-09-09T21:15:46.875Z,17.00
2022-09-09T21:22:47.284Z,17.00
2022-09-09T21:29:47.686Z,17.00
2022-09-09T21:36:48.020Z,16.90
2022-09-09T21:43:52.469Z,16.90
2022-09-09T21:50:54.745Z,16.80
2022-09-09T21:57:54.990Z,16.70
2022-09-09T22:04:55.481Z,16.70
2022-09-09T22:11:55.921Z,16.70
2022-09-09T22:18:59.039Z,16.80
2022-09-09T22:26:00.338Z,16.80
2022-09-09T22:33:01.147Z,16.80
2022-09-09T22:40:01.940Z,16.80
2022-09-09T22:47:02.678Z,16.80
2022-09-09T22:54:05.084Z,16.80
2022-09-09T23:01:17.849Z,16.70
2022-09-09T23:08:18.639Z,16.60
2022-09-09T23:15:19.851Z,16.60
2022-09-09T23:22:21.056Z,16.60
2022-09-09T23:29:21.502Z,16.60
2022-09-09T23:36:24.638Z,16.60
2022-09-09T23:43:27.211Z,16.60
2022-09-09T23:50:28.102Z,16.50
2022-09-09T23:57:28.618Z,16.50
